sensor_id;sensor_type;location;lat;lon;timestamp;temperature;humidity
73322;DHT22;61549;37.044;22.128;2023-01-29T00:01:45;14.60;52.50
73322;DHT22;61549;37.044;22.128;2023-01-29T00:04:11;14.60;52.40
73322;DHT22;61549;37.044;22.128;2023-01-29T00:06:37;14.50;52.40
73322;DHT22;61549;37.044;22.128;2023-01-29T00:09:03;14.50;52.30
73322;DHT22;61549;37.044;22.128;2023-01-29T00:11:29;14.50;52.30
73322;DHT22;61549;37.044;22.128;2023-01-29T00:13:56;14.50;52.30
73322;DHT22;61549;37.044;22.128;2023-01-29T00:16:22;14.50;52.00
73322;DHT22;61549;37.044;22.128;2023-01-29T00:18:48;14.50;52.10
73322;DHT22;61549;37.044;22.128;2023-01-29T00:21:17;14.50;51.90
73322;DHT22;61549;37.044;22.128;2023-01-29T00:23:43;14.50;52.20
73322;DHT22;61549;37.044;22.128;2023-01-29T00:26:10;14.60;52.20
73322;DHT22;61549;37.044;22.128;2023-01-29T00:28:37;14.50;51.80
73322;DHT22;61549;37.044;22.128;2023-01-29T00:33:35;14.40;51.80
73322;DHT22;61549;37.044;22.128;2023-01-29T00:36:06;14.40;52.10
73322;DHT22;61549;37.044;22.128;2023-01-29T00:38:33;14.40;52.10
73322;DHT22;61549;37.044;22.128;2023-01-29T00:41:10;14.40;52.10
73322;DHT22;61549;37.044;22.128;2023-01-29T00:43:56;14.50;51.60
73322;DHT22;61549;37.044;22.128;2023-01-29T00:46:40;14.50;51.80
73322;DHT22;61549;37.044;22.128;2023-01-29T00:49:07;14.50;51.80
73322;DHT22;61549;37.044;22.128;2023-01-29T00:51:33;14.50;51.80
73322;DHT22;61549;37.044;22.128;2023-01-29T00:54:00;14.60;51.90
73322;DHT22;61549;37.044;22.128;2023-01-29T00:56:28;14.60;51.80
73322;DHT22;61549;37.044;22.128;2023-01-29T00:58:55;14.70;52.10
73322;DHT22;61549;37.044;22.128;2023-01-29T01:01:22;14.80;52.00
73322;DHT22;61549;37.044;22.128;2023-01-29T01:04:07;14.90;52.50
73322;DHT22;61549;37.044;22.128;2023-01-29T01:06:36;15.00;52.60
73322;DHT22;61549;37.044;22.128;2023-01-29T01:09:03;15.00;52.10
73322;DHT22;61549;37.044;22.128;2023-01-29T01:11:48;15.00;52.10
73322;DHT22;61549;37.044;22.128;2023-01-29T01:14:16;15.00;51.90
73322;DHT22;61549;37.044;22.128;2023-01-29T01:16:43;14.90;51.50
73322;DHT22;61549;37.044;22.128;2023-01-29T01:19:09;14.90;51.70
73322;DHT22;61549;37.044;22.128;2023-01-29T01:21:35;14.90;52.10
73322;DHT22;61549;37.044;22.128;2023-01-29T01:24:01;14.90;53.30
73322;DHT22;61549;37.044;22.128;2023-01-29T01:26:31;14.90;53.90
73322;DHT22;61549;37.044;22.128;2023-01-29T01:28:57;14.80;54.30
73322;DHT22;61549;37.044;22.128;2023-01-29T01:31:23;14.70;54.70
73322;DHT22;61549;37.044;22.128;2023-01-29T01:33:49;14.70;55.00
73322;DHT22;61549;37.044;22.128;2023-01-29T01:36:16;14.70;55.50
73322;DHT22;61549;37.044;22.128;2023-01-29T01:38:43;14.60;55.60
73322;DHT22;61549;37.044;22.128;2023-01-29T01:41:13;14.60;55.80
73322;DHT22;61549;37.044;22.128;2023-01-29T01:44:00;14.60;56.00
73322;DHT22;61549;37.044;22.128;2023-01-29T01:46:31;14.70;55.90
73322;DHT22;61549;37.044;22.128;2023-01-29T01:49:16;14.60;56.10
73322;DHT22;61549;37.044;22.128;2023-01-29T01:51:46;14.60;56.20
73322;DHT22;61549;37.044;22.128;2023-01-29T01:54:26;14.60;56.00
73322;DHT22;61549;37.044;22.128;2023-01-29T01:57:03;14.70;56.20
73322;DHT22;61549;37.044;22.128;2023-01-29T01:59:45;14.70;56.90
73322;DHT22;61549;37.044;22.128;2023-01-29T02:02:14;14.70;57.50
73322;DHT22;61549;37.044;22.128;2023-01-29T02:04:59;14.70;57.10
73322;DHT22;61549;37.044;22.128;2023-01-29T02:07:45;14.70;57.70
73322;DHT22;61549;37.044;22.128;2023-01-29T02:10:50;14.70;57.80
73322;DHT22;61549;37.044;22.128;2023-01-29T02:13:18;14.60;57.80
73322;DHT22;61549;37.044;22.128;2023-01-29T02:15:45;14.50;58.70
73322;DHT22;61549;37.044;22.128;2023-01-29T02:18:20;14.40;59.20
73322;DHT22;61549;37.044;22.128;2023-01-29T02:21:19;14.20;59.70
73322;DHT22;61549;37.044;22.128;2023-01-29T02:24:02;14.30;60.40
73322;DHT22;61549;37.044;22.128;2023-01-29T02:27:08;14.30;61.10
73322;DHT22;61549;37.044;22.128;2023-01-29T02:32:48;13.90;62.00
73322;DHT22;61549;37.044;22.128;2023-01-29T02:35:44;13.80;62.60
73322;DHT22;61549;37.044;22.128;2023-01-29T02:41:12;13.70;62.50
73322;DHT22;61549;37.044;22.128;2023-01-29T02:49:54;13.70;60.30
73322;DHT22;61549;37.044;22.128;2023-01-29T02:52:26;13.70;59.00
73322;DHT22;61549;37.044;22.128;2023-01-29T02:55:03;13.60;60.00
73322;DHT22;61549;37.044;22.128;2023-01-29T02:57:35;13.60;60.10
73322;DHT22;61549;37.044;22.128;2023-01-29T03:02:37;13.50;60.70
73322;DHT22;61549;37.044;22.128;2023-01-29T03:05:12;13.50;60.30
73322;DHT22;61549;37.044;22.128;2023-01-29T03:07:44;13.60;59.70
73322;DHT22;61549;37.044;22.128;2023-01-29T03:10:20;13.50;58.90
73322;DHT22;61549;37.044;22.128;2023-01-29T03:13:03;13.40;59.00
73322;DHT22;61549;37.044;22.128;2023-01-29T03:15:38;13.40;59.40
73322;DHT22;61549;37.044;22.128;2023-01-29T03:18:27;13.50;58.50
73322;DHT22;61549;37.044;22.128;2023-01-29T03:21:04;13.50;58.20
73322;DHT22;61549;37.044;22.128;2023-01-29T03:23:53;13.60;58.00
73322;DHT22;61549;37.044;22.128;2023-01-29T03:26:38;13.60;57.40
73322;DHT22;61549;37.044;22.128;2023-01-29T03:29:23;13.50;57.20
73322;DHT22;61549;37.044;22.128;2023-01-29T03:32:09;13.50;57.10
73322;DHT22;61549;37.044;22.128;2023-01-29T03:34:48;13.60;57.20
73322;DHT22;61549;37.044;22.128;2023-01-29T03:37:32;13.60;57.00
73322;DHT22;61549;37.044;22.128;2023-01-29T03:40:02;13.60;56.10
73322;DHT22;61549;37.044;22.128;2023-01-29T03:47:45;13.70;56.20
73322;DHT22;61549;37.044;22.128;2023-01-29T03:53:24;13.60;55.90
73322;DHT22;61549;37.044;22.128;2023-01-29T03:55:54;13.60;55.70
73322;DHT22;61549;37.044;22.128;2023-01-29T03:58:46;13.70;55.70
73322;DHT22;61549;37.044;22.128;2023-01-29T04:04:18;13.70;55.00
73322;DHT22;61549;37.044;22.128;2023-01-29T04:06:49;13.80;55.00
73322;DHT22;61549;37.044;22.128;2023-01-29T04:09:30;13.80;55.20
73322;DHT22;61549;37.044;22.128;2023-01-29T04:12:10;13.90;54.90
73322;DHT22;61549;37.044;22.128;2023-01-29T04:14:38;13.90;55.00
73322;DHT22;61549;37.044;22.128;2023-01-29T04:17:13;13.90;55.10
73322;DHT22;61549;37.044;22.128;2023-01-29T04:19:42;13.80;55.00
73322;DHT22;61549;37.044;22.128;2023-01-29T04:22:32;13.80;55.00
73322;DHT22;61549;37.044;22.128;2023-01-29T04:25:01;13.70;54.70
73322;DHT22;61549;37.044;22.128;2023-01-29T04:35:53;13.60;54.40
73322;DHT22;61549;37.044;22.128;2023-01-29T04:43:37;13.80;53.90
73322;DHT22;61549;37.044;22.128;2023-01-29T04:46:15;13.80;53.70
73322;DHT22;61549;37.044;22.128;2023-01-29T04:57:08;14.10;53.90
73322;DHT22;61549;37.044;22.128;2023-01-29T04:59:43;14.10;53.70
73322;DHT22;61549;37.044;22.128;2023-01-29T05:02:11;14.10;53.50
73322;DHT22;61549;37.044;22.128;2023-01-29T05:04:39;14.10;53.30
73322;DHT22;61549;37.044;22.128;2023-01-29T05:07:09;14.20;53.90
73322;DHT22;61549;37.044;22.128;2023-01-29T05:09:37;14.20;53.80
73322;DHT22;61549;37.044;22.128;2023-01-29T05:12:06;14.30;54.10
73322;DHT22;61549;37.044;22.128;2023-01-29T05:14:34;14.20;53.60
73322;DHT22;61549;37.044;22.128;2023-01-29T05:17:04;14.20;53.40
73322;DHT22;61549;37.044;22.128;2023-01-29T05:19:33;14.20;54.20
73322;DHT22;61549;37.044;22.128;2023-01-29T05:21:59;14.20;54.50
73322;DHT22;61549;37.044;22.128;2023-01-29T05:24:26;14.20;54.60
73322;DHT22;61549;37.044;22.128;2023-01-29T05:26:52;14.20;54.70
73322;DHT22;61549;37.044;22.128;2023-01-29T05:29:42;14.20;54.80
73322;DHT22;61549;37.044;22.128;2023-01-29T05:32:09;14.30;55.70
73322;DHT22;61549;37.044;22.128;2023-01-29T05:38:01;14.20;56.20
73322;DHT22;61549;37.044;22.128;2023-01-29T05:40:27;14.20;56.30
73322;DHT22;61549;37.044;22.128;2023-01-29T05:46:36;14.10;55.90
73322;DHT22;61549;37.044;22.128;2023-01-29T05:49:03;14.20;56.80
73322;DHT22;61549;37.044;22.128;2023-01-29T05:51:29;14.10;57.20
73322;DHT22;61549;37.044;22.128;2023-01-29T05:53:54;14.00;57.70
73322;DHT22;61549;37.044;22.128;2023-01-29T05:56:20;14.00;57.50
73322;DHT22;61549;37.044;22.128;2023-01-29T05:58:47;13.90;57.10
73322;DHT22;61549;37.044;22.128;2023-01-29T06:01:18;13.90;57.20
73322;DHT22;61549;37.044;22.128;2023-01-29T06:03:45;13.90;58.20
73322;DHT22;61549;37.044;22.128;2023-01-29T06:06:11;13.90;58.10
73322;DHT22;61549;37.044;22.128;2023-01-29T06:08:38;13.90;58.30
73322;DHT22;61549;37.044;22.128;2023-01-29T06:11:07;13.90;58.20
73322;DHT22;61549;37.044;22.128;2023-01-29T06:13:34;13.80;58.10
73322;DHT22;61549;37.044;22.128;2023-01-29T06:15:59;13.80;58.30
73322;DHT22;61549;37.044;22.128;2023-01-29T06:18:25;13.90;59.20
73322;DHT22;61549;37.044;22.128;2023-01-29T06:20:51;13.80;59.20
73322;DHT22;61549;37.044;22.128;2023-01-29T06:23:19;13.80;59.20
73322;DHT22;61549;37.044;22.128;2023-01-29T06:25:48;13.90;59.30
73322;DHT22;61549;37.044;22.128;2023-01-29T06:28:14;14.00;59.40
73322;DHT22;61549;37.044;22.128;2023-01-29T06:30:39;13.90;59.40
73322;DHT22;61549;37.044;22.128;2023-01-29T06:33:05;14.00;59.70
73322;DHT22;61549;37.044;22.128;2023-01-29T06:35:31;14.00;59.90
73322;DHT22;61549;37.044;22.128;2023-01-29T06:37:57;14.10;59.80
73322;DHT22;61549;37.044;22.128;2023-01-29T06:40:22;14.10;59.80
73322;DHT22;61549;37.044;22.128;2023-01-29T06:42:48;14.10;60.20
73322;DHT22;61549;37.044;22.128;2023-01-29T06:45:14;14.20;60.10
73322;DHT22;61549;37.044;22.128;2023-01-29T06:47:40;14.30;60.30
73322;DHT22;61549;37.044;22.128;2023-01-29T06:50:11;14.40;60.70
73322;DHT22;61549;37.044;22.128;2023-01-29T06:52:37;14.40;60.90
73322;DHT22;61549;37.044;22.128;2023-01-29T06:55:07;14.50;61.00
73322;DHT22;61549;37.044;22.128;2023-01-29T06:57:33;14.80;60.70
73322;DHT22;61549;37.044;22.128;2023-01-29T06:59:59;15.10;59.70
73322;DHT22;61549;37.044;22.128;2023-01-29T07:02:25;15.30;60.00
73322;DHT22;61549;37.044;22.128;2023-01-29T07:04:51;15.40;59.30
73322;DHT22;61549;37.044;22.128;2023-01-29T07:07:17;15.60;59.40
73322;DHT22;61549;37.044;22.128;2023-01-29T07:09:42;15.70;57.90
73322;DHT22;61549;37.044;22.128;2023-01-29T07:12:09;15.80;58.40
73322;DHT22;61549;37.044;22.128;2023-01-29T07:14:36;15.90;58.00
73322;DHT22;61549;37.044;22.128;2023-01-29T07:17:02;15.90;57.90
73322;DHT22;61549;37.044;22.128;2023-01-29T07:19:28;15.90;56.40
73322;DHT22;61549;37.044;22.128;2023-01-29T07:21:54;15.90;56.20
73322;DHT22;61549;37.044;22.128;2023-01-29T07:24:20;15.80;57.40
73322;DHT22;61549;37.044;22.128;2023-01-29T07:26:48;15.80;56.20
73322;DHT22;61549;37.044;22.128;2023-01-29T07:29:15;15.80;56.10
73322;DHT22;61549;37.044;22.128;2023-01-29T07:31:40;15.80;57.30
73322;DHT22;61549;37.044;22.128;2023-01-29T07:34:06;15.80;58.50
73322;DHT22;61549;37.044;22.128;2023-01-29T07:36:32;15.70;58.30
73322;DHT22;61549;37.044;22.128;2023-01-29T07:38:58;15.60;57.60
73322;DHT22;61549;37.044;22.128;2023-01-29T07:41:24;15.60;58.00
73322;DHT22;61549;37.044;22.128;2023-01-29T07:43:49;15.50;58.40
73322;DHT22;61549;37.044;22.128;2023-01-29T07:46:16;15.50;58.90
73322;DHT22;61549;37.044;22.128;2023-01-29T07:48:43;15.40;58.20
73322;DHT22;61549;37.044;22.128;2023-01-29T07:51:09;15.40;59.00
73322;DHT22;61549;37.044;22.128;2023-01-29T07:53:35;15.40;58.90
73322;DHT22;61549;37.044;22.128;2023-01-29T07:56:01;15.30;59.00
73322;DHT22;61549;37.044;22.128;2023-01-29T07:58:27;15.30;59.20
73322;DHT22;61549;37.044;22.128;2023-01-29T08:00:55;15.30;59.30
73322;DHT22;61549;37.044;22.128;2023-01-29T08:03:21;15.30;59.90
73322;DHT22;61549;37.044;22.128;2023-01-29T08:05:47;15.20;59.70
73322;DHT22;61549;37.044;22.128;2023-01-29T08:08:13;15.30;59.30
73322;DHT22;61549;37.044;22.128;2023-01-29T08:10:40;15.30;59.20
73322;DHT22;61549;37.044;22.128;2023-01-29T08:13:07;15.30;58.30
73322;DHT22;61549;37.044;22.128;2023-01-29T08:15:33;15.30;59.30
73322;DHT22;61549;37.044;22.128;2023-01-29T08:18:00;15.40;58.90
73322;DHT22;61549;37.044;22.128;2023-01-29T08:20:26;15.40;57.80
73322;DHT22;61549;37.044;22.128;2023-01-29T08:23:06;15.40;56.70
73322;DHT22;61549;37.044;22.128;2023-01-29T08:25:34;15.50;56.60
73322;DHT22;61549;37.044;22.128;2023-01-29T08:28:00;15.40;56.90
73322;DHT22;61549;37.044;22.128;2023-01-29T08:30:28;15.50;57.40
73322;DHT22;61549;37.044;22.128;2023-01-29T08:32:54;15.50;57.50
73322;DHT22;61549;37.044;22.128;2023-01-29T08:35:20;15.60;57.90
73322;DHT22;61549;37.044;22.128;2023-01-29T08:38:06;15.70;57.60
73322;DHT22;61549;37.044;22.128;2023-01-29T08:43:54;15.80;57.40
73322;DHT22;61549;37.044;22.128;2023-01-29T08:46:20;15.80;58.10
73322;DHT22;61549;37.044;22.128;2023-01-29T08:48:45;15.90;58.90
73322;DHT22;61549;37.044;22.128;2023-01-29T08:51:12;16.00;59.50
73322;DHT22;61549;37.044;22.128;2023-01-29T08:53:37;16.10;58.90
73322;DHT22;61549;37.044;22.128;2023-01-29T08:56:05;16.20;57.80
73322;DHT22;61549;37.044;22.128;2023-01-29T08:58:31;16.30;56.80
73322;DHT22;61549;37.044;22.128;2023-01-29T09:01:09;16.40;55.70
73322;DHT22;61549;37.044;22.128;2023-01-29T09:03:35;16.50;55.10
73322;DHT22;61549;37.044;22.128;2023-01-29T09:06:02;16.50;54.50
73322;DHT22;61549;37.044;22.128;2023-01-29T09:08:28;16.60;54.20
73322;DHT22;61549;37.044;22.128;2023-01-29T09:10:54;16.70;55.00
73322;DHT22;61549;37.044;22.128;2023-01-29T09:13:25;16.80;55.00
73322;DHT22;61549;37.044;22.128;2023-01-29T09:15:51;16.80;55.50
73322;DHT22;61549;37.044;22.128;2023-01-29T09:18:17;17.00;54.50
73322;DHT22;61549;37.044;22.128;2023-01-29T09:20:43;17.00;54.20
73322;DHT22;61549;37.044;22.128;2023-01-29T09:23:09;17.00;54.70
73322;DHT22;61549;37.044;22.128;2023-01-29T09:25:36;17.00;54.20
73322;DHT22;61549;37.044;22.128;2023-01-29T09:28:02;17.10;53.50
73322;DHT22;61549;37.044;22.128;2023-01-29T09:30:28;17.20;52.40
73322;DHT22;61549;37.044;22.128;2023-01-29T09:32:54;17.10;52.40
73322;DHT22;61549;37.044;22.128;2023-01-29T09:35:21;17.10;52.70
73322;DHT22;61549;37.044;22.128;2023-01-29T09:37:49;17.20;52.90
73322;DHT22;61549;37.044;22.128;2023-01-29T09:40:26;17.30;52.70
73322;DHT22;61549;37.044;22.128;2023-01-29T09:43:05;17.30;51.40
73322;DHT22;61549;37.044;22.128;2023-01-29T09:45:32;17.40;51.10
73322;DHT22;61549;37.044;22.128;2023-01-29T09:48:02;17.40;50.70
73322;DHT22;61549;37.044;22.128;2023-01-29T09:50:49;17.30;51.10
73322;DHT22;61549;37.044;22.128;2023-01-29T09:53:52;17.40;50.90
73322;DHT22;61549;37.044;22.128;2023-01-29T09:56:21;17.50;49.20
73322;DHT22;61549;37.044;22.128;2023-01-29T09:58:56;17.50;49.00
73322;DHT22;61549;37.044;22.128;2023-01-29T10:18:28;17.50;47.40
73322;DHT22;61549;37.044;22.128;2023-01-29T10:21:23;17.70;48.70
73322;DHT22;61549;37.044;22.128;2023-01-29T10:26:40;18.10;48.70
73322;DHT22;61549;37.044;22.128;2023-01-29T10:32:29;18.40;46.80
73322;DHT22;61549;37.044;22.128;2023-01-29T10:35:44;18.70;44.10
73322;DHT22;61549;37.044;22.128;2023-01-29T10:37:44;18.80;44.80
73322;DHT22;61549;37.044;22.128;2023-01-29T10:40:20;19.00;44.90
73322;DHT22;61549;37.044;22.128;2023-01-29T10:42:56;19.20;43.80
73322;DHT22;61549;37.044;22.128;2023-01-29T10:45:45;19.40;42.80
73322;DHT22;61549;37.044;22.128;2023-01-29T10:57:17;20.00;42.20
73322;DHT22;61549;37.044;22.128;2023-01-29T11:00:24;19.80;42.10
73322;DHT22;61549;37.044;22.128;2023-01-29T11:02:51;19.80;42.30
73322;DHT22;61549;37.044;22.128;2023-01-29T11:05:42;19.90;41.60
73322;DHT22;61549;37.044;22.128;2023-01-29T11:08:12;19.90;42.40
73322;DHT22;61549;37.044;22.128;2023-01-29T11:13:28;20.00;42.10
73322;DHT22;61549;37.044;22.128;2023-01-29T11:15:55;19.80;42.90
73322;DHT22;61549;37.044;22.128;2023-01-29T11:18:21;19.70;43.00
73322;DHT22;61549;37.044;22.128;2023-01-29T11:21:08;19.50;44.00
73322;DHT22;61549;37.044;22.128;2023-01-29T11:23:34;19.60;44.00
73322;DHT22;61549;37.044;22.128;2023-01-29T11:26:07;19.40;44.40
73322;DHT22;61549;37.044;22.128;2023-01-29T11:28:36;19.20;45.10
73322;DHT22;61549;37.044;22.128;2023-01-29T11:31:02;19.00;45.60
73322;DHT22;61549;37.044;22.128;2023-01-29T11:33:29;19.00;45.90
73322;DHT22;61549;37.044;22.128;2023-01-29T11:35:55;19.00;45.90
73322;DHT22;61549;37.044;22.128;2023-01-29T11:40:48;18.80;47.10
73322;DHT22;61549;37.044;22.128;2023-01-29T11:43:34;18.70;47.40
73322;DHT22;61549;37.044;22.128;2023-01-29T11:49:52;18.80;47.10
73322;DHT22;61549;37.044;22.128;2023-01-29T11:52:21;18.80;47.90
73322;DHT22;61549;37.044;22.128;2023-01-29T11:55:02;18.80;48.00
73322;DHT22;61549;37.044;22.128;2023-01-29T11:57:35;18.80;47.40
73322;DHT22;61549;37.044;22.128;2023-01-29T12:00:23;18.80;47.40
73322;DHT22;61549;37.044;22.128;2023-01-29T12:05:38;18.70;47.70
73322;DHT22;61549;37.044;22.128;2023-01-29T12:08:14;18.80;47.90
73322;DHT22;61549;37.044;22.128;2023-01-29T12:10:41;18.80;47.90
73322;DHT22;61549;37.044;22.128;2023-01-29T12:15:46;18.80;48.00
73322;DHT22;61549;37.044;22.128;2023-01-29T12:18:32;19.00;47.80
73322;DHT22;61549;37.044;22.128;2023-01-29T12:21:27;18.90;47.20
73322;DHT22;61549;37.044;22.128;2023-01-29T12:24:37;18.90;47.70
73322;DHT22;61549;37.044;22.128;2023-01-29T12:35:27;18.50;48.20
73322;DHT22;61549;37.044;22.128;2023-01-29T12:40:28;18.30;48.50
73322;DHT22;61549;37.044;22.128;2023-01-29T12:42:59;18.20;49.30
73322;DHT22;61549;37.044;22.128;2023-01-29T12:45:27;18.00;49.60
73322;DHT22;61549;37.044;22.128;2023-01-29T12:48:01;18.00;50.10
73322;DHT22;61549;37.044;22.128;2023-01-29T12:50:34;17.80;50.70
73322;DHT22;61549;37.044;22.128;2023-01-29T12:53:25;17.90;50.60
73322;DHT22;61549;37.044;22.128;2023-01-29T12:55:58;18.10;49.90
73322;DHT22;61549;37.044;22.128;2023-01-29T12:58:35;18.10;49.80
73322;DHT22;61549;37.044;22.128;2023-01-29T13:01:14;18.20;49.60
73322;DHT22;61549;37.044;22.128;2023-01-29T13:04:18;18.20;49.60
73322;DHT22;61549;37.044;22.128;2023-01-29T13:06:50;18.20;50.20
73322;DHT22;61549;37.044;22.128;2023-01-29T13:09:26;18.00;50.20
73322;DHT22;61549;37.044;22.128;2023-01-29T13:11:55;18.00;50.70
73322;DHT22;61549;37.044;22.128;2023-01-29T13:15:16;18.20;50.40
73322;DHT22;61549;37.044;22.128;2023-01-29T13:17:33;18.30;50.60
73322;DHT22;61549;37.044;22.128;2023-01-29T13:20:28;18.30;48.80
73322;DHT22;61549;37.044;22.128;2023-01-29T13:22:58;18.30;49.30
73322;DHT22;61549;37.044;22.128;2023-01-29T13:25:27;18.30;50.00
73322;DHT22;61549;37.044;22.128;2023-01-29T13:27:53;18.10;50.20
73322;DHT22;61549;37.044;22.128;2023-01-29T13:30:30;18.20;50.10
73322;DHT22;61549;37.044;22.128;2023-01-29T13:32:59;18.20;49.70
73322;DHT22;61549;37.044;22.128;2023-01-29T13:35:44;18.30;49.00
73322;DHT22;61549;37.044;22.128;2023-01-29T13:38:28;18.30;49.40
73322;DHT22;61549;37.044;22.128;2023-01-29T13:41:03;18.30;49.00
73322;DHT22;61549;37.044;22.128;2023-01-29T13:43:40;18.40;49.90
73322;DHT22;61549;37.044;22.128;2023-01-29T13:46:12;18.30;49.80
73322;DHT22;61549;37.044;22.128;2023-01-29T13:48:46;18.30;49.80
73322;DHT22;61549;37.044;22.128;2023-01-29T13:51:16;18.30;49.90
73322;DHT22;61549;37.044;22.128;2023-01-29T13:54:04;18.30;49.70
73322;DHT22;61549;37.044;22.128;2023-01-29T13:58:59;18.30;48.90
73322;DHT22;61549;37.044;22.128;2023-01-29T14:06:57;18.30;49.40
73322;DHT22;61549;37.044;22.128;2023-01-29T14:12:02;18.30;48.50
73322;DHT22;61549;37.044;22.128;2023-01-29T14:17:17;18.30;49.60
73322;DHT22;61549;37.044;22.128;2023-01-29T14:20:14;18.30;49.50
73322;DHT22;61549;37.044;22.128;2023-01-29T14:22:42;18.30;48.80
73322;DHT22;61549;37.044;22.128;2023-01-29T14:25:16;18.20;50.00
73322;DHT22;61549;37.044;22.128;2023-01-29T14:27:47;18.10;50.80
73322;DHT22;61549;37.044;22.128;2023-01-29T14:30:16;18.10;50.90
73322;DHT22;61549;37.044;22.128;2023-01-29T14:32:47;18.10;50.40
73322;DHT22;61549;37.044;22.128;2023-01-29T14:35:27;18.00;50.70
73322;DHT22;61549;37.044;22.128;2023-01-29T14:38:06;18.00;51.10
73322;DHT22;61549;37.044;22.128;2023-01-29T14:40:33;17.90;51.80
73322;DHT22;61549;37.044;22.128;2023-01-29T14:43:18;17.80;51.70
73322;DHT22;61549;37.044;22.128;2023-01-29T14:45:47;17.80;51.90
73322;DHT22;61549;37.044;22.128;2023-01-29T14:48:38;17.80;52.10
73322;DHT22;61549;37.044;22.128;2023-01-29T14:51:14;17.70;52.50
73322;DHT22;61549;37.044;22.128;2023-01-29T14:58:50;17.60;55.80
73322;DHT22;61549;37.044;22.128;2023-01-29T15:04:02;17.50;56.30
73322;DHT22;61549;37.044;22.128;2023-01-29T15:06:47;17.50;56.30
73322;DHT22;61549;37.044;22.128;2023-01-29T15:09:52;17.40;56.70
73322;DHT22;61549;37.044;22.128;2023-01-29T15:12:26;17.30;57.10
73322;DHT22;61549;37.044;22.128;2023-01-29T15:20:23;17.10;58.10
73322;DHT22;61549;37.044;22.128;2023-01-29T15:22:49;17.00;58.30
73322;DHT22;61549;37.044;22.128;2023-01-29T15:25:15;17.00;58.60
73322;DHT22;61549;37.044;22.128;2023-01-29T15:27:48;16.90;58.70
73322;DHT22;61549;37.044;22.128;2023-01-29T15:30:18;16.90;58.30
73322;DHT22;61549;37.044;22.128;2023-01-29T15:32:45;16.90;58.50
73322;DHT22;61549;37.044;22.128;2023-01-29T15:35:35;16.90;58.30
73322;DHT22;61549;37.044;22.128;2023-01-29T15:38:15;16.80;57.90
73322;DHT22;61549;37.044;22.128;2023-01-29T15:40:49;16.70;57.90
73322;DHT22;61549;37.044;22.128;2023-01-29T15:43:24;16.60;57.90
73322;DHT22;61549;37.044;22.128;2023-01-29T15:45:51;16.60;57.70
73322;DHT22;61549;37.044;22.128;2023-01-29T15:48:30;16.60;57.80
73322;DHT22;61549;37.044;22.128;2023-01-29T15:51:00;16.50;57.50
73322;DHT22;61549;37.044;22.128;2023-01-29T15:53:53;16.50;57.40
73322;DHT22;61549;37.044;22.128;2023-01-29T15:56:25;16.40;57.20
73322;DHT22;61549;37.044;22.128;2023-01-29T15:58:56;16.40;57.20
73322;DHT22;61549;37.044;22.128;2023-01-29T16:01:26;16.30;57.10
73322;DHT22;61549;37.044;22.128;2023-01-29T16:03:52;16.30;57.10
73322;DHT22;61549;37.044;22.128;2023-01-29T16:06:37;16.20;57.10
73322;DHT22;61549;37.044;22.128;2023-01-29T16:09:05;16.20;56.90
73322;DHT22;61549;37.044;22.128;2023-01-29T16:11:37;16.10;57.10
73322;DHT22;61549;37.044;22.128;2023-01-29T16:14:29;16.00;57.10
73322;DHT22;61549;37.044;22.128;2023-01-29T16:23:28;15.90;56.90
73322;DHT22;61549;37.044;22.128;2023-01-29T16:26:34;15.90;56.80
73322;DHT22;61549;37.044;22.128;2023-01-29T16:29:31;15.80;56.60
73322;DHT22;61549;37.044;22.128;2023-01-29T16:31:59;15.70;56.80
73322;DHT22;61549;37.044;22.128;2023-01-29T16:34:43;15.60;57.00
73322;DHT22;61549;37.044;22.128;2023-01-29T16:37:33;15.60;57.00
73322;DHT22;61549;37.044;22.128;2023-01-29T16:40:25;15.50;56.70
73322;DHT22;61549;37.044;22.128;2023-01-29T16:46:01;15.30;56.50
73322;DHT22;61549;37.044;22.128;2023-01-29T16:48:34;15.30;56.30
73322;DHT22;61549;37.044;22.128;2023-01-29T16:54:13;15.40;55.90
73322;DHT22;61549;37.044;22.128;2023-01-29T16:56:44;15.40;55.50
73322;DHT22;61549;37.044;22.128;2023-01-29T16:59:32;15.30;55.40
73322;DHT22;61549;37.044;22.128;2023-01-29T17:01:59;15.30;55.20
73322;DHT22;61549;37.044;22.128;2023-01-29T17:04:35;15.30;54.90
73322;DHT22;61549;37.044;22.128;2023-01-29T17:07:03;15.30;54.90
73322;DHT22;61549;37.044;22.128;2023-01-29T17:09:32;15.30;54.70
73322;DHT22;61549;37.044;22.128;2023-01-29T17:12:02;15.30;54.60
73322;DHT22;61549;37.044;22.128;2023-01-29T17:14:31;15.30;54.30
73322;DHT22;61549;37.044;22.128;2023-01-29T17:17:11;15.40;53.90
73322;DHT22;61549;37.044;22.128;2023-01-29T17:19:38;15.40;53.40
73322;DHT22;61549;37.044;22.128;2023-01-29T17:22:11;15.30;52.70
73322;DHT22;61549;37.044;22.128;2023-01-29T17:24:42;15.30;52.10
73322;DHT22;61549;37.044;22.128;2023-01-29T17:27:17;15.40;51.90
73322;DHT22;61549;37.044;22.128;2023-01-29T17:29:44;15.30;51.80
73322;DHT22;61549;37.044;22.128;2023-01-29T17:32:10;15.30;51.70
73322;DHT22;61549;37.044;22.128;2023-01-29T17:34:36;15.40;51.50
73322;DHT22;61549;37.044;22.128;2023-01-29T17:37:02;15.40;51.40
73322;DHT22;61549;37.044;22.128;2023-01-29T17:39:28;15.40;51.00
73322;DHT22;61549;37.044;22.128;2023-01-29T17:41:56;15.40;51.00
73322;DHT22;61549;37.044;22.128;2023-01-29T17:44:29;15.40;50.40
73322;DHT22;61549;37.044;22.128;2023-01-29T17:46:55;15.40;50.40
73322;DHT22;61549;37.044;22.128;2023-01-29T17:49:25;15.30;50.30
73322;DHT22;61549;37.044;22.128;2023-01-29T17:51:52;15.30;50.40
73322;DHT22;61549;37.044;22.128;2023-01-29T17:54:26;15.30;50.40
73322;DHT22;61549;37.044;22.128;2023-01-29T17:56:53;15.30;50.50
73322;DHT22;61549;37.044;22.128;2023-01-29T17:59:21;15.30;49.90
73322;DHT22;61549;37.044;22.128;2023-01-29T18:01:48;15.30;49.60
73322;DHT22;61549;37.044;22.128;2023-01-29T18:04:17;15.20;49.60
73322;DHT22;61549;37.044;22.128;2023-01-29T18:06:45;15.20;49.70
73322;DHT22;61549;37.044;22.128;2023-01-29T18:09:15;15.10;49.70
73322;DHT22;61549;37.044;22.128;2023-01-29T18:11:43;15.20;49.90
73322;DHT22;61549;37.044;22.128;2023-01-29T18:14:09;15.20;49.80
73322;DHT22;61549;37.044;22.128;2023-01-29T18:16:37;15.20;49.60
73322;DHT22;61549;37.044;22.128;2023-01-29T18:19:23;15.10;49.00
73322;DHT22;61549;37.044;22.128;2023-01-29T18:21:54;15.20;49.20
73322;DHT22;61549;37.044;22.128;2023-01-29T18:24:19;15.20;48.90
73322;DHT22;61549;37.044;22.128;2023-01-29T18:26:46;15.20;48.90